Time;durP1;ratioP1;P1;durP2;ratioP2;P2;SDS_P1;SDS_P2;PMS_P1;PMS_P2;Temp;Humidity;BMP_temperature;BMP_pressure;BME280_temperature;BME280_humidity;BME280_pressure;Samples;Min_cycle;Max_cycle;Signal;HPM_P1;HPM_P2
2022/08/07 00:00:41;;;;;;;;;;;;;;;21.66;60.37;99894.87;4428504;32;19973;-89
2022/08/07 00:03:07;;;;;;;;;;;;;;;21.67;60.36;99898.38;4441464;32;19981;-89
2022/08/07 00:05:32;;;;;;;;;;;;;;;21.71;60.37;99898.00;4428423;32;20003;-87
2022/08/07 00:07:58;;;;;;;;;;;;;;;21.70;60.38;99898.97;4441378;32;19989;-87
2022/08/07 00:10:23;;;;;;;;;;;;;;;21.64;60.37;99891.50;4455641;32;19993;-88
2022/08/07 00:12:48;;;;;;;;;;;;;;;21.73;60.37;99898.75;4455529;32;19999;-88
2022/08/07 00:15:14;;;;;;;;;;;;;;;21.75;60.37;99899.47;4455466;32;19976;-89
2022/08/07 00:17:43;;;;;;;;;;;;;;;21.62;60.36;99887.28;4455486;32;20327;-88
2022/08/07 00:20:08;;;;;;;;;;;;;;;21.75;60.37;99888.03;4441679;32;20013;-87
2022/08/07 00:22:33;;;;;;;;;;;;;;;21.78;60.38;99890.47;4441269;32;19993;-88
2022/08/07 00:24:59;;;;;;;;;;;;;;;21.81;60.38;99878.78;4441230;32;20033;-88
2022/08/07 00:27:24;;;;;;;;;;;;;;;21.73;60.37;99888.13;4440480;32;32913;-88
2022/08/07 00:29:49;;;;;;;;;;;;;;;21.83;60.38;99875.06;4455150;32;22974;-88
2022/08/07 00:32:14;;;;;;;;;;;;;;;21.83;60.37;99896.25;4454802;32;23422;-88
2022/08/07 00:34:40;;;;;;;;;;;;;;;21.76;60.37;99895.84;4428063;32;20004;-87
2022/08/07 00:37:05;;;;;;;;;;;;;;;21.58;60.36;99897.25;4454535;32;25660;-88
2022/08/07 00:39:31;;;;;;;;;;;;;;;21.78;60.37;99892.28;4441045;32;19965;-88
2022/08/07 00:41:56;;;;;;;;;;;;;;;21.74;60.37;99899.59;4428076;32;19993;-88
2022/08/07 00:44:22;;;;;;;;;;;;;;;21.93;60.38;99893.72;4440894;32;20033;-86
2022/08/07 00:46:47;;;;;;;;;;;;;;;21.90;60.38;99881.56;4440781;32;19973;-87
2022/08/07 00:49:12;;;;;;;;;;;;;;;21.89;60.38;99879.03;4440027;32;32043;-86
2022/08/07 00:51:37;;;;;;;;;;;;;;;21.81;60.38;99876.97;4427993;32;20289;-88
2022/08/07 00:54:02;;;;;;;;;;;;;;;21.86;60.38;99879.28;4440732;32;19987;-85
2022/08/07 00:56:28;;;;;;;;;;;;;;;21.88;60.38;99883.50;4441136;32;20008;-87
2022/08/07 00:58:53;;;;;;;;;;;;;;;21.98;60.38;99871.19;4439472;32;20379;-87
2022/08/07 01:01:19;;;;;;;;;;;;;;;21.81;60.37;99876.97;4439401;32;29574;-86
2022/08/07 01:03:44;;;;;;;;;;;;;;;21.69;60.36;99865.50;4448308;32;19988;-86
2022/08/07 01:06:09;;;;;;;;;;;;;;;21.72;60.37;99872.37;4441221;32;19985;-85
2022/08/07 01:08:35;;;;;;;;;;;;;;;21.67;60.36;99872.72;4428175;32;19977;-86
2022/08/07 01:11:00;;;;;;;;;;;;;;;21.76;60.37;99872.00;4440176;32;27024;-86
2022/08/07 01:13:25;;;;;;;;;;;;;;;21.57;60.36;99884.13;4439873;32;25983;-86
2022/08/07 01:15:50;;;;;;;;;;;;;;;21.73;60.37;99874.91;4439781;32;30266;-86
2022/08/07 01:18:15;;;;;;;;;;;;;;;21.84;60.38;99873.25;4439876;32;26197;-86
2022/08/07 01:20:42;;;;;;;;;;;;;;;21.75;60.37;99875.62;4439855;32;26361;-86
2022/08/07 01:23:07;;;;;;;;;;;;;;;21.78;60.37;99873.72;4427545;32;20024;-86
2022/08/07 01:25:32;;;;;;;;;;;;;;;21.85;60.38;99869.63;4453984;32;19978;-86
2022/08/07 01:27:58;;;;;;;;;;;;;;;21.80;60.37;99869.16;4440302;32;20055;-85
2022/08/07 01:30:23;;;;;;;;;;;;;;;21.89;60.38;99868.44;4439575;32;31927;-86
2022/08/07 01:32:48;;;;;;;;;;;;;;;21.92;60.37;99870.84;4440228;32;20026;-86
2022/08/07 01:35:14;;;;;;;;;;;;;;;21.87;60.38;99873.00;4439424;32;32979;-86
2022/08/07 01:37:39;;;;;;;;;;;;;;;21.97;60.38;99861.56;4427286;32;19977;-85
2022/08/07 01:40:04;;;;;;;;;;;;;;;21.94;60.38;99864.47;4439928;32;19989;-86
2022/08/07 01:42:30;;;;;;;;;;;;;;;21.95;60.38;99866.16;4440193;32;20016;-87
2022/08/07 01:44:55;;;;;;;;;;;;;;;21.96;60.38;99859.88;4426409;32;32141;-86
2022/08/07 01:47:20;;;;;;;;;;;;;;;21.90;60.38;99870.97;4427363;32;20343;-87
2022/08/07 01:49:45;;;;;;;;;;;;;;;21.92;60.38;99870.84;4440333;32;19993;-86
2022/08/07 01:52:11;;;;;;;;;;;;;;;21.80;60.37;99875.28;4439872;32;19982;-86
2022/08/07 01:54:37;;;;;;;;;;;;;;;21.83;60.37;99864.44;4439455;32;29970;-86
2022/08/07 01:57:07;;;;;;;;;;;;;;;21.76;60.37;99868.50;4440131;32;19995;-87
2022/08/07 01:59:39;;;;;;;;;;;;;;;21.91;60.38;99863.84;4439823;32;19994;-87
2022/08/07 02:02:07;;;;;;;;;;;;;;;21.97;60.38;99866.03;4454035;32;20008;-87
2022/08/07 02:04:39;;;;;;;;;;;;;;;21.87;60.38;99875.66;4439692;32;20045;-87
2022/08/07 02:07:05;;;;;;;;;;;;;;;21.93;60.37;99867.22;4439879;32;19993;-87
2022/08/07 02:09:30;;;;;;;;;;;;;;;22.01;60.38;99868.34;4438971;32;31277;-86
2022/08/07 02:11:55;;;;;;;;;;;;;;;22.02;60.38;99869.19;4426644;32;20053;-87
2022/08/07 02:14:20;;;;;;;;;;;;;;;21.98;60.38;99876.50;4439693;32;19977;-87
2022/08/07 02:16:47;;;;;;;;;;;;;;;21.96;60.38;99878.44;4441888;32;20026;-88
2022/08/07 02:19:12;;;;;;;;;;;;;;;21.95;60.39;99875.91;4429148;32;20605;-88
2022/08/07 02:21:37;;;;;;;;;;;;;;;21.90;60.38;99878.06;4455996;32;19992;-88
2022/08/07 02:24:03;;;;;;;;;;;;;;;21.85;60.37;99885.53;4441845;32;20257;-87
2022/08/07 02:26:28;;;;;;;;;;;;;;;21.85;60.38;99888.19;4441982;32;20009;-87
2022/08/07 02:28:53;;;;;;;;;;;;;;;21.78;60.37;99886.97;4441850;32;20001;-87
2022/08/07 02:31:18;;;;;;;;;;;;;;;21.89;60.38;99893.13;4441089;32;32468;-87
2022/08/07 02:33:44;;;;;;;;;;;;;;;21.95;60.38;99887.34;4428542;32;22144;-87
2022/08/07 02:36:09;;;;;;;;;;;;;;;21.89;60.38;99890.47;4455320;32;25159;-87
2022/08/07 02:38:35;;;;;;;;;;;;;;;21.88;60.38;99888.78;4428522;32;20600;-87
2022/08/07 02:41:00;;;;;;;;;;;;;;;21.82;60.37;99886.63;4428897;32;20023;-87
2022/08/07 02:43:26;;;;;;;;;;;;;;;21.72;60.37;99894.41;4455059;32;35209;-87
2022/08/07 02:45:51;;;;;;;;;;;;;;;21.92;60.37;99892.88;4441717;32;19995;-86
2022/08/07 02:48:16;;;;;;;;;;;;;;;21.92;60.38;99889.41;4428261;32;23394;-85
2022/08/07 02:50:42;;;;;;;;;;;;;;;22.01;60.38;99884.25;4455950;32;20358;-85
2022/08/07 02:53:10;;;;;;;;;;;;;;;21.90;60.38;99899.28;4441662;32;19969;-85
2022/08/07 02:55:36;;;;;;;;;;;;;;;21.72;60.37;99896.22;4441873;32;19991;-86
2022/08/07 02:58:02;;;;;;;;;;;;;;;21.84;60.37;99892.66;4441508;32;19981;-86
2022/08/07 03:00:27;;;;;;;;;;;;;;;21.81;60.37;99887.56;4455781;32;19995;-85
2022/08/07 03:02:52;;;;;;;;;;;;;;;21.79;60.36;99891.31;4428769;32;19995;-86
2022/08/07 03:05:17;;;;;;;;;;;;;;;21.81;60.37;99898.19;4441102;32;23671;-86
2022/08/07 03:07:43;;;;;;;;;;;;;;;21.64;60.37;99895.94;4441529;32;19985;-86
2022/08/07 03:10:08;;;;;;;;;;;;;;;21.72;60.38;99888.25;4441562;32;20342;-86
2022/08/07 03:12:34;;;;;;;;;;;;;;;21.82;60.37;99891.06;4455514;32;20022;-85
2022/08/07 03:14:59;;;;;;;;;;;;;;;21.70;60.37;99892.84;4441678;32;19989;-86
2022/08/07 03:17:24;;;;;;;;;;;;;;;21.73;60.37;99893.44;4455493;32;20029;-86
2022/08/07 03:19:50;;;;;;;;;;;;;;;21.69;60.37;99891.16;4441310;32;20287;-86
2022/08/07 03:22:15;;;;;;;;;;;;;;;21.72;60.37;99889.09;4440631;32;33087;-86
2022/08/07 03:24:40;;;;;;;;;;;;;;;21.91;60.38;99887.72;4441371;32;19989;-86
2022/08/07 03:27:06;;;;;;;;;;;;;;;21.74;60.37;99892.47;4440712;32;20002;-86
2022/08/07 03:29:32;;;;;;;;;;;;;;;21.79;60.38;99886.00;4455598;32;19987;-86
2022/08/07 03:31:58;;;;;;;;;;;;;;;21.91;60.38;99888.56;4441528;32;20310;-86
2022/08/07 03:34:23;;;;;;;;;;;;;;;21.89;60.38;99890.47;4440771;32;29311;-86
2022/08/07 03:36:49;;;;;;;;;;;;;;;21.82;60.37;99893.72;4440497;32;37273;-87
2022/08/07 03:39:14;;;;;;;;;;;;;;;21.70;60.36;99885.72;4441438;32;20004;-86
2022/08/07 03:41:40;;;;;;;;;;;;;;;21.69;60.36;99884.03;4441522;32;19990;-87
2022/08/07 03:44:05;;;;;;;;;;;;;;;21.72;60.37;99883.81;4427547;32;34384;-87
2022/08/07 03:46:30;;;;;;;;;;;;;;;21.70;60.36;99900.78;4427688;32;31523;-86
2022/08/07 03:48:55;;;;;;;;;;;;;;;21.80;60.37;99887.69;4440539;32;31489;-87
2022/08/07 03:51:21;;;;;;;;;;;;;;;21.89;60.38;99905.53;4428439;32;20020;-87
2022/08/07 03:53:46;;;;;;;;;;;;;;;21.82;60.37;99905.16;4441178;32;19999;-87
2022/08/07 03:56:11;;;;;;;;;;;;;;;21.79;60.36;99904.56;4441298;32;19980;-86
2022/08/07 03:58:36;;;;;;;;;;;;;;;21.81;60.37;99918.53;4441113;32;20249;-86
2022/08/07 04:01:02;;;;;;;;;;;;;;;21.94;60.37;99911.31;4441258;32;19981;-87
2022/08/07 04:03:29;;;;;;;;;;;;;;;21.89;60.38;99910.84;4455449;32;20008;-87
2022/08/07 04:05:54;;;;;;;;;;;;;;;21.82;60.37;99920.22;4428308;32;19994;-87
2022/08/07 04:08:19;;;;;;;;;;;;;;;21.75;60.37;99922.47;4440963;32;20028;-88
2022/08/07 04:10:44;;;;;;;;;;;;;;;21.82;60.37;99930.81;4428206;32;19981;-86
2022/08/07 04:13:10;;;;;;;;;;;;;;;21.79;60.36;99928.41;4427771;32;27416;-87
2022/08/07 04:15:35;;;;;;;;;;;;;;;21.76;60.37;99927.66;4441142;32;20050;-86
2022/08/07 04:18:01;;;;;;;;;;;;;;;21.67;60.36;99933.66;4440264;32;32803;-87
2022/08/07 04:20:26;;;;;;;;;;;;;;;21.76;60.37;99932.09;4440580;32;24817;-86
2022/08/07 04:22:52;;;;;;;;;;;;;;;22.07;60.39;99935.97;4455158;32;19996;-86
2022/08/07 04:25:17;;;;;;;;;;;;;;;21.92;60.37;99945.06;4428174;32;20003;-86
2022/08/07 04:27:42;;;;;;;;;;;;;;;21.97;60.39;99950.84;4427487;32;31212;-87
2022/08/07 04:30:07;;;;;;;;;;;;;;;21.71;60.37;99951.00;4440938;32;19996;-86
2022/08/07 04:32:33;;;;;;;;;;;;;;;21.71;60.37;99952.81;4428004;32;19969;-87
2022/08/07 04:34:58;;;;;;;;;;;;;;;21.67;60.36;99943.41;4440735;32;20043;-86
2022/08/07 04:37:23;;;;;;;;;;;;;;;21.72;60.37;99938.59;4440038;32;26429;-86
2022/08/07 04:39:48;;;;;;;;;;;;;;;21.65;60.37;99942.69;4447015;32;27714;-86
2022/08/07 04:42:13;;;;;;;;;;;;;;;21.70;60.36;99944.00;4452481;32;19985;-86
2022/08/07 04:44:39;;;;;;;;;;;;;;;21.80;60.38;99954.78;4450903;32;19988;-86
2022/08/07 04:47:04;;;;;;;;;;;;;;;21.70;60.36;99951.12;4441241;32;26266;-86
2022/08/07 04:49:32;;;;;;;;;;;;;;;21.80;60.37;99949.50;4455826;32;19987;-87
2022/08/07 04:52:02;;;;;;;;;;;;;;;21.78;60.37;99950.56;4440965;32;19977;-87
2022/08/07 04:54:35;;;;;;;;;;;;;;;21.85;60.37;99954.44;4428025;32;19993;-87
2022/08/07 04:57:02;;;;;;;;;;;;;;;21.87;60.38;99955.16;4427869;32;20007;-87
2022/08/07 04:59:46;;;;;;;;;;;;;;;21.82;60.37;99946.72;4422530;32;19997;-87
2022/08/07 05:02:23;;;;;;;;;;;;;;;21.84;60.37;99950.94;4424072;32;19969;-87
2022/08/07 05:04:59;;;;;;;;;;;;;;;21.99;60.38;99946.25;4422944;32;20648;-87
2022/08/07 05:07:26;;;;;;;;;;;;;;;21.97;60.38;99946.38;4410103;32;19994;-87
2022/08/07 05:09:56;;;;;;;;;;;;;;;22.02;60.39;99949.56;4410136;32;19995;-87
2022/08/07 05:12:23;;;;;;;;;;;;;;;22.23;60.39;99949.72;4409800;32;19970;-86
2022/08/07 05:14:48;;;;;;;;;;;;;;;22.19;60.39;99950.91;4422580;32;20041;-85
2022/08/07 05:17:13;;;;;;;;;;;;;;;22.35;60.40;99947.94;4409641;32;29946;-88
2022/08/07 05:19:43;;;;;;;;;;;;;;;22.29;60.40;99951.91;4409800;32;20013;-89
2022/08/07 05:22:08;;;;;;;;;;;;;;;22.34;60.41;99957.72;4409717;32;20012;-88
2022/08/07 05:24:34;;;;;;;;;;;;;;;22.40;60.39;99955.53;4435303;32;20795;-88
2022/08/07 05:26:59;;;;;;;;;;;;;;;22.53;60.41;99961.59;4422399;32;32226;-88
2022/08/07 05:29:24;;;;;;;;;;;;;;;22.55;60.40;99960.50;4409541;32;19978;-88
2022/08/07 05:31:49;;;;;;;;;;;;;;;22.62;60.41;99963.50;4409617;32;19978;-87
2022/08/07 05:34:15;;;;;;;;;;;;;;;22.71;60.41;99968.09;4421525;32;33033;-88
2022/08/07 05:36:45;;;;;;;;;;;;;;;22.73;60.43;99960.03;4409362;32;19994;-87
2022/08/07 05:39:10;;;;;;;;;;;;;;;22.79;60.42;99965.69;4422156;32;20045;-88
2022/08/07 05:41:36;;;;;;;;;;;;;;;22.92;60.43;99966.41;4422349;32;19997;-88
2022/08/07 05:44:01;;;;;;;;;;;;;;;22.97;60.43;99968.72;4422223;32;20298;-88
2022/08/07 05:46:26;;;;;;;;;;;;;;;23.09;60.43;99966.88;4409544;32;20286;-86
2022/08/07 05:48:52;;;;;;;;;;;;;;;23.24;60.44;99969.16;4421768;32;32575;-88
2022/08/07 05:51:17;;;;;;;;;;;;;;;23.36;60.45;99967.31;4411123;32;19977;-86
2022/08/07 05:53:43;;;;;;;;;;;;;;;23.27;60.45;99974.22;4410979;32;20244;-84
2022/08/07 05:56:08;;;;;;;;;;;;;;;23.38;60.45;99970.69;4424231;32;19989;-84
2022/08/07 05:58:34;;;;;;;;;;;;;;;23.29;60.45;99968.78;4418099;32;19992;-84
2022/08/07 06:00:59;;;;;;;;;;;;;;;23.51;60.46;99970.53;4456033;32;19965;-84
2022/08/07 06:03:25;;;;;;;;;;;;;;;23.57;60.47;99968.22;4455482;32;19991;-84
2022/08/07 06:05:50;;;;;;;;;;;;;;;23.67;60.47;99965.69;4441639;32;20257;-84
2022/08/07 06:08:15;;;;;;;;;;;;;;;23.73;60.48;99961.66;4441297;32;19993;-81
2022/08/07 06:10:41;;;;;;;;;;;;;;;23.55;60.46;99978.13;4428098;32;19969;-82
2022/08/07 06:13:06;;;;;;;;;;;;;;;23.64;60.47;99975.69;4428428;32;20334;-82
2022/08/07 06:15:31;;;;;;;;;;;;;;;23.72;60.47;99978.56;4441614;32;20001;-83
2022/08/07 06:17:57;;;;;;;;;;;;;;;23.92;60.48;99975.09;4440845;32;31697;-83
2022/08/07 06:20:23;;;;;;;;;;;;;;;24.09;60.49;99981.62;4428712;32;19981;-83
2022/08/07 06:22:48;;;;;;;;;;;;;;;24.26;60.50;99982.88;4441512;32;19993;-84
2022/08/07 06:25:13;;;;;;;;;;;;;;;24.46;60.51;99977.56;4428465;32;20070;-83
2022/08/07 06:27:38;;;;;;;;;;;;;;;24.50;60.51;99983.47;4455137;32;25831;-84
2022/08/07 06:30:04;;;;;;;;;;;;;;;24.65;60.52;99983.97;4441220;32;21034;-84
2022/08/07 06:32:29;;;;;;;;;;;;;;;24.64;60.52;99988.47;4441639;32;20008;-85
2022/08/07 06:34:54;;;;;;;;;;;;;;;24.71;60.52;99984.28;4455640;32;19973;-85
2022/08/07 06:37:20;;;;;;;;;;;;;;;24.76;60.53;99984.72;4454945;32;31019;-84
2022/08/07 06:39:45;;;;;;;;;;;;;;;24.95;60.53;99988.44;4427930;32;32469;-84
2022/08/07 06:42:14;;;;;;;;;;;;;;;24.91;60.54;99992.34;4440699;32;34033;-84
2022/08/07 06:44:40;;;;;;;;;;;;;;;24.91;60.54;99989.69;4428637;32;20008;-87
2022/08/07 06:47:05;;;;;;;;;;;;;;;24.80;60.52;99996.78;4441378;32;19985;-83
2022/08/07 06:49:30;;;;;;;;;;;;;;;24.57;60.52;99997.94;4441574;32;19992;-82
2022/08/07 06:51:55;;;;;;;;;;;;;;;24.85;60.53;100003.53;4440441;32;25646;-83
2022/08/07 06:54:21;;;;;;;;;;;;;;;24.71;60.52;100002.91;4440767;32;28609;-80
2022/08/07 06:56:49;;;;;;;;;;;;;;;24.57;60.51;99997.09;4441418;32;20262;-83
2022/08/07 06:59:21;;;;;;;;;;;;;;;24.66;60.51;99999.81;4441675;32;19988;-83
2022/08/07 07:01:47;;;;;;;;;;;;;;;24.82;60.52;99999.31;4440653;32;20050;-83
2022/08/07 07:04:12;;;;;;;;;;;;;;;24.97;60.53;99999.78;4441369;32;20001;-82
2022/08/07 07:06:37;;;;;;;;;;;;;;;24.99;60.54;99984.56;4440348;32;35927;-84
2022/08/07 07:09:38;;;;;;;;;;;;;;;25.02;60.54;99989.59;4428113;32;20035;-83
2022/08/07 07:12:06;;;;;;;;;;;;;;;25.09;60.54;99988.94;4391867;32;20017;-84
2022/08/07 07:14:50;;;;;;;;;;;;;;;25.51;60.56;99987.88;4442958;32;19994;-83
2022/08/07 07:17:34;;;;;;;;;;;;;;;25.61;60.56;99986.09;4441324;32;19987;-84
2022/08/07 07:19:59;;;;;;;;;;;;;;;25.66;60.57;99987.34;4455459;32;19965;-83
2022/08/07 07:22:25;;;;;;;;;;;;;;;25.81;60.58;99994.97;4441231;32;19980;-84
2022/08/07 07:24:50;;;;;;;;;;;;;;;25.90;60.58;99992.28;4428353;32;20022;-84
2022/08/07 07:27:15;;;;;;;;;;;;;;;26.02;60.59;99992.97;4428222;32;19989;-83
2022/08/07 07:29:42;;;;;;;;;;;;;;;25.87;60.59;99986.41;4441371;32;19970;-83
2022/08/07 07:32:08;;;;;;;;;;;;;;;25.99;60.58;99990.59;4441251;32;19985;-83
2022/08/07 07:34:34;;;;;;;;;;;;;;;26.34;60.61;99989.16;4428197;32;20379;-83
2022/08/07 07:37:00;;;;;;;;;;;;;;;26.34;60.61;99992.69;4428235;32;20015;-83
2022/08/07 07:39:25;;;;;;;;;;;;;;;26.37;60.61;99988.88;4441252;32;19965;-83
2022/08/07 07:41:50;;;;;;;;;;;;;;;26.58;60.62;99976.19;4440548;32;28899;-83
2022/08/07 07:44:15;;;;;;;;;;;;;;;26.70;60.62;99972.31;4455096;32;20028;-82
2022/08/07 07:46:41;;;;;;;;;;;;;;;27.08;60.64;99970.50;4441008;32;19977;-82
2022/08/07 07:49:06;;;;;;;;;;;;;;;27.08;60.64;99979.34;4440440;32;29957;-82
2022/08/07 07:51:31;;;;;;;;;;;;;;;27.23;60.65;99978.87;4441231;32;19985;-83
2022/08/07 07:53:56;;;;;;;;;;;;;;;27.16;60.65;99975.91;4454588;32;25991;-83
2022/08/07 07:56:22;;;;;;;;;;;;;;;27.56;60.67;99978.19;4440333;32;31705;-83
2022/08/07 07:58:47;;;;;;;;;;;;;;;27.78;60.68;99977.78;4440837;32;20008;-83
2022/08/07 08:01:13;;;;;;;;;;;;;;;27.87;60.68;99975.16;4439945;32;30973;-81
2022/08/07 08:03:38;;;;;;;;;;;;;;;27.81;60.67;99979.28;4440084;32;27052;-82
2022/08/07 08:06:03;;;;;;;;;;;;;;;28.05;60.70;99982.16;4441034;32;19985;-83
2022/08/07 08:08:29;;;;;;;;;;;;;;;28.01;60.69;99982.62;4454572;32;27509;-83
2022/08/07 08:10:55;;;;;;;;;;;;;;;28.19;60.70;99977.25;4428165;32;19992;-83
2022/08/07 08:13:20;;;;;;;;;;;;;;;28.46;60.72;99974.47;4427415;32;27124;-83
2022/08/07 08:15:46;;;;;;;;;;;;;;;28.58;60.72;99975.00;4440276;32;31448;-83
2022/08/07 08:18:11;;;;;;;;;;;;;;;28.69;60.73;99970.22;4442333;32;19969;-82
2022/08/07 08:20:37;;;;;;;;;;;;;;;28.96;60.74;99971.88;4442239;32;20322;-81
2022/08/07 08:28:30;;;;;;;;;;;;;;;29.19;60.75;99976.66;4443510;32;20473;-82
2022/08/07 08:30:56;;;;;;;;;;;;;;;29.11;60.75;99974.78;4440094;32;34313;-83
2022/08/07 08:33:22;;;;;;;;;;;;;;;29.29;60.76;99969.28;4427823;32;20356;-83
2022/08/07 08:35:47;;;;;;;;;;;;;;;29.35;60.76;99968.66;4440904;32;19992;-83
2022/08/07 08:38:13;;;;;;;;;;;;;;;29.24;60.75;99971.63;4440579;32;19973;-83
2022/08/07 08:40:41;;;;;;;;;;;;;;;29.27;60.76;99976.66;4440828;32;20007;-82
2022/08/07 08:43:08;;;;;;;;;;;;;;;29.49;60.77;99973.41;4427609;32;20068;-83
2022/08/07 08:45:52;;;;;;;;;;;;;;;29.55;60.77;99977.25;4427789;32;19973;-83
2022/08/07 08:48:26;;;;;;;;;;;;;;;29.55;60.77;99978.09;4440686;32;19973;-82
2022/08/07 08:51:06;;;;;;;;;;;;;;;29.66;60.78;99978.78;4440658;32;19977;-83
2022/08/07 08:53:50;;;;;;;;;;;;;;;29.81;60.79;99977.97;4440645;32;20034;-83
2022/08/07 08:56:23;;;;;;;;;;;;;;;29.92;60.79;99974.94;4440870;32;20022;-84
2022/08/07 08:58:48;;;;;;;;;;;;;;;30.10;60.80;99974.81;4427783;32;19969;-84
2022/08/07 09:01:19;;;;;;;;;;;;;;;30.08;60.80;99975.97;4440784;32;20022;-84
2022/08/07 09:04:17;;;;;;;;;;;;;;;29.89;60.80;99979.81;4440816;32;20036;-84
2022/08/07 09:06:42;;;;;;;;;;;;;;;29.86;60.79;99974.78;4414858;32;20009;-85
2022/08/07 09:09:20;;;;;;;;;;;;;;;29.81;60.79;99979.78;4440363;32;20001;-85
2022/08/07 09:11:48;;;;;;;;;;;;;;;29.84;60.79;99977.63;4440476;32;19985;-85
2022/08/07 09:14:15;;;;;;;;;;;;;;;29.78;60.78;99974.75;4440456;32;19995;-85
2022/08/07 09:16:44;;;;;;;;;;;;;;;29.83;60.79;99975.12;4440222;32;19992;-85
2022/08/07 09:19:45;;;;;;;;;;;;;;;30.13;60.81;99974.47;4440438;32;19974;-85
2022/08/07 09:22:13;;;;;;;;;;;;;;;30.24;60.80;99982.16;4391096;32;20005;-85
2022/08/07 09:24:38;;;;;;;;;;;;;;;30.35;60.81;99980.13;4442428;32;20690;-84
2022/08/07 09:27:15;;;;;;;;;;;;;;;30.44;60.81;99971.03;4456256;32;19970;-84
2022/08/07 09:29:47;;;;;;;;;;;;;;;30.52;60.83;99968.31;4442151;32;20013;-85
2022/08/07 09:32:24;;;;;;;;;;;;;;;30.57;60.82;99965.97;4442092;32;20054;-84
2022/08/07 09:35:08;;;;;;;;;;;;;;;30.72;60.83;99966.94;4456292;32;19985;-84
2022/08/07 09:37:39;;;;;;;;;;;;;;;30.82;60.83;99964.09;4456278;32;19976;-84
2022/08/07 09:40:31;;;;;;;;;;;;;;;30.73;60.83;99960.56;4456554;32;20314;-83
2022/08/07 09:42:56;;;;;;;;;;;;;;;31.02;60.85;99959.97;4452673;32;20038;-84
2022/08/07 09:45:30;;;;;;;;;;;;;;;31.46;60.88;99957.53;4455966;32;19981;-84
2022/08/07 09:47:55;;;;;;;;;;;;;;;31.74;60.89;99955.19;4455888;32;19989;-83
2022/08/07 09:50:39;;;;;;;;;;;;;;;32.14;60.91;99952.28;4456242;32;19961;-85
2022/08/07 09:53:04;;;;;;;;;;;;;;;32.38;60.92;99946.69;4456231;32;20038;-85
2022/08/07 09:55:37;;;;;;;;;;;;;;;32.34;60.91;99946.22;4442188;32;19994;-85
2022/08/07 09:58:05;;;;;;;;;;;;;;;32.46;60.92;99941.22;4429054;32;19991;-84
2022/08/07 10:00:48;;;;;;;;;;;;;;;32.45;60.92;99936.03;4456278;32;19992;-84
2022/08/07 10:03:32;;;;;;;;;;;;;;;32.44;60.93;99929.78;4442029;32;20040;-85
2022/08/07 10:06:09;;;;;;;;;;;;;;;32.48;60.92;99930.25;4456399;32;20392;-85
2022/08/07 10:08:54;;;;;;;;;;;;;;;32.64;60.93;99936.28;4456377;32;19977;-85
2022/08/07 10:11:34;;;;;;;;;;;;;;;32.85;60.94;99921.22;4456223;32;20335;-85
2022/08/07 10:13:59;;;;;;;;;;;;;;;32.97;60.94;99915.16;4456132;32;20019;-85
2022/08/07 10:16:24;;;;;;;;;;;;;;;33.07;60.94;99914.84;4456133;32;20306;-85
2022/08/07 10:18:53;;;;;;;;;;;;;;;33.23;60.97;99914.63;4456072;32;19993;-85
2022/08/07 10:21:36;;;;;;;;;;;;;;;33.41;60.97;99913.38;4456055;32;19984;-85
2022/08/07 10:24:20;;;;;;;;;;;;;;;33.61;60.98;99919.81;4456251;32;19981;-85
2022/08/07 10:26:48;;;;;;;;;;;;;;;33.82;60.99;99908.13;4456016;32;20024;-84
2022/08/07 10:29:17;;;;;;;;;;;;;;;33.65;60.98;99912.97;4456042;32;19976;-84
2022/08/07 10:31:47;;;;;;;;;;;;;;;33.33;60.97;99906.22;4456018;32;19973;-84
2022/08/07 10:34:27;;;;;;;;;;;;;;;33.42;60.97;99906.97;4441760;32;20048;-84
2022/08/07 10:37:11;;;;;;;;;;;;;;;33.13;60.95;99906.00;4440943;32;20003;-85
2022/08/07 10:39:39;;;;;;;;;;;;;;;32.85;60.95;99905.03;4456273;32;19981;-85
2022/08/07 10:42:23;;;;;;;;;;;;;;;32.80;60.93;99897.53;4455940;32;19984;-85
2022/08/07 10:44:52;;;;;;;;;;;;;;;32.96;60.94;99901.87;4456060;32;19985;-84
2022/08/07 10:47:29;;;;;;;;;;;;;;;33.10;60.96;99898.28;4441964;32;19985;-85
2022/08/07 10:50:03;;;;;;;;;;;;;;;33.20;60.96;99896.13;4441828;32;19991;-85
2022/08/07 10:52:33;;;;;;;;;;;;;;;33.08;60.96;99889.53;4441799;32;20027;-85
2022/08/07 10:55:06;;;;;;;;;;;;;;;33.01;60.95;99888.66;4441754;32;20012;-85
2022/08/07 10:57:50;;;;;;;;;;;;;;;33.16;60.96;99891.31;4441839;32;20038;-84
2022/08/07 11:00:15;;;;;;;;;;;;;;;33.39;60.96;99885.75;4440541;32;19986;-83
2022/08/07 11:02:41;;;;;;;;;;;;;;;33.69;60.98;99878.31;4450946;32;19983;-85
2022/08/07 11:05:06;;;;;;;;;;;;;;;33.89;60.99;99883.91;4454509;32;20027;-84
2022/08/07 11:07:51;;;;;;;;;;;;;;;33.80;61.00;99875.91;4455375;32;19962;-84
2022/08/07 11:10:18;;;;;;;;;;;;;;;33.94;60.99;99876.06;4439426;32;19977;-84
2022/08/07 11:12:50;;;;;;;;;;;;;;;34.20;61.00;99867.28;4413290;32;19985;-84
2022/08/07 11:15:17;;;;;;;;;;;;;;;34.35;61.01;99865.31;4413269;32;20016;-85
2022/08/07 11:17:45;;;;;;;;;;;;;;;34.38;61.02;99863.06;4426061;32;20335;-85
2022/08/07 11:20:13;;;;;;;;;;;;;;;34.44;61.02;99864.94;4426307;32;20033;-84
2022/08/07 11:22:50;;;;;;;;;;;;;;;34.56;61.03;99859.81;4413410;32;20005;-87
2022/08/07 11:25:16;;;;;;;;;;;;;;;34.62;61.03;99860.88;4426835;32;19993;-88
2022/08/07 11:28:05;;;;;;;;;;;;;;;34.79;61.04;99854.06;4428170;32;20046;-87
2022/08/07 11:30:39;;;;;;;;;;;;;;;34.84;61.03;99848.06;4441463;32;19985;-89
2022/08/07 11:33:10;;;;;;;;;;;;;;;34.71;61.03;99849.66;4441200;32;20004;-84
2022/08/07 11:35:48;;;;;;;;;;;;;;;34.34;61.01;99848.28;4441333;32;19985;-85
2022/08/07 11:38:14;;;;;;;;;;;;;;;34.41;61.02;99843.72;4441288;32;19989;-86
2022/08/07 11:40:46;;;;;;;;;;;;;;;34.40;61.02;99849.34;4440986;32;20020;-86
2022/08/07 11:43:19;;;;;;;;;;;;;;;34.32;61.01;99841.37;4455424;32;19989;-85
2022/08/07 11:46:03;;;;;;;;;;;;;;;34.53;61.03;99830.47;4441102;32;20008;-88
2022/08/07 11:48:35;;;;;;;;;;;;;;;34.45;61.02;99836.88;4441350;32;19989;-88
2022/08/07 11:51:19;;;;;;;;;;;;;;;34.25;61.01;99832.38;4455939;32;20646;-86
2022/08/07 11:54:05;;;;;;;;;;;;;;;34.00;61.00;99832.03;4455715;32;20002;-86
2022/08/07 11:56:49;;;;;;;;;;;;;;;33.98;61.00;99837.66;4439525;32;20465;-88
2022/08/07 11:59:14;;;;;;;;;;;;;;;34.08;61.00;99826.50;4440182;32;20259;-85
2022/08/07 12:01:43;;;;;;;;;;;;;;;33.92;60.99;99824.94;4439976;32;20025;-87
2022/08/07 12:04:31;;;;;;;;;;;;;;;33.98;61.00;99821.44;4439029;32;20640;-85
2022/08/07 12:07:17;;;;;;;;;;;;;;;34.07;61.01;99814.00;4431686;32;20040;-89
2022/08/07 12:09:47;;;;;;;;;;;;;;;34.09;61.00;99812.78;4440265;32;20326;-87
2022/08/07 12:12:12;;;;;;;;;;;;;;;34.14;61.01;99812.19;4440322;32;20042;-88
2022/08/07 12:14:41;;;;;;;;;;;;;;;34.15;61.01;99805.75;4446702;32;20008;-86
2022/08/07 12:17:09;;;;;;;;;;;;;;;33.89;61.00;99816.41;4448296;32;19981;-86
2022/08/07 12:20:10;;;;;;;;;;;;;;;33.69;60.98;99810.84;4449004;32;19968;-86
2022/08/07 12:22:38;;;;;;;;;;;;;;;33.64;60.99;99818.69;4378568;32;20099;-85
2022/08/07 12:28:12;;;;;;;;;;;;;;;33.81;61.00;99799.28;4439304;32;20037;-85
2022/08/07 12:30:37;;;;;;;;;;;;;;;34.34;61.01;99793.38;4438812;32;20456;-85
2022/08/07 12:33:05;;;;;;;;;;;;;;;34.29;61.02;99795.81;4438398;32;19988;-85
2022/08/07 12:35:30;;;;;;;;;;;;;;;34.16;61.01;99792.03;4438342;32;20068;-86
2022/08/07 12:37:55;;;;;;;;;;;;;;;34.13;61.01;99783.50;4438403;32;20348;-86
2022/08/07 12:40:27;;;;;;;;;;;;;;;34.09;61.01;99788.47;4425042;32;19989;-85
2022/08/07 12:42:53;;;;;;;;;;;;;;;34.33;61.02;99791.69;4438371;32;20484;-84
2022/08/07 12:45:21;;;;;;;;;;;;;;;34.51;61.02;99786.56;4437985;32;19986;-86
2022/08/07 12:48:05;;;;;;;;;;;;;;;34.65;61.03;99782.06;4438267;32;20003;-86
2022/08/07 12:50:34;;;;;;;;;;;;;;;34.47;61.03;99772.63;4439547;32;20015;-85
2022/08/07 12:53:06;;;;;;;;;;;;;;;34.42;61.02;99785.94;4439549;32;20001;-86
2022/08/07 12:55:35;;;;;;;;;;;;;;;34.38;61.02;99776.56;4439291;32;20048;-86
2022/08/07 12:58:06;;;;;;;;;;;;;;;34.76;61.03;99776.03;4440456;32;19993;-86
2022/08/07 13:00:54;;;;;;;;;;;;;;;35.02;61.06;99768.03;4439373;32;20052;-85
2022/08/07 13:03:34;;;;;;;;;;;;;;;35.18;61.06;99764.03;4440592;32;19995;-85